Time;durP1;ratioP1;P1;durP2;ratioP2;P2;SDS_P1;SDS_P2;PMS_P1;PMS_P2;Temp;Humidity;BMP_temperature;BMP_pressure;BME280_temperature;BME280_humidity;BME280_pressure;Samples;Min_cycle;Max_cycle;Signal;HPM_P1;HPM_P2
2023/06/15 00:00:29;;;;;;;0.00;0.00;;;13.50;99.90;;;;;;5067401;28;20440;-78
2023/06/15 00:02:55;;;;;;;0.00;0.00;;;13.50;99.90;;;;;;5064966;28;20444;-78
2023/06/15 00:05:21;;;;;;;0.00;0.00;;;13.40;99.90;;;;;;5052189;28;20543;-78
2023/06/15 00:07:47;;;;;;;0.00;0.00;;;13.40;99.90;;;;;;5067511;28;20555;-78
2023/06/15 00:10:12;;;;;;;0.00;0.00;;;13.40;99.90;;;;;;5068150;28;20189;-78
2023/06/15 00:12:38;;;;;;;0.00;0.00;;;13.30;99.90;;;;;;5065330;28;20209;-78
2023/06/15 00:15:06;;;;;;;0.00;0.00;;;13.30;99.90;;;;;;5069213;28;20232;-77
2023/06/15 00:17:31;;;;;;;0.00;0.00;;;13.20;99.90;;;;;;5069660;28;20452;-78
2023/06/15 00:20:00;;;;;;;0.00;0.00;;;13.20;99.90;;;;;;5068186;28;20439;-78
2023/06/15 00:22:26;;;;;;;0.00;0.00;;;13.20;99.90;;;;;;5047625;28;20182;-78
2023/06/15 00:24:52;;;;;;;0.00;0.00;;;13.20;99.90;;;;;;5050272;28;20447;-78
2023/06/15 00:27:18;;;;;;;0.00;0.00;;;13.10;99.90;;;;;;5066230;28;20672;-78
2023/06/15 00:29:43;;;;;;;0.00;0.00;;;13.10;99.90;;;;;;5067784;28;20479;-78
2023/06/15 00:32:09;;;;;;;0.00;0.00;;;13.10;99.90;;;;;;5084063;28;20217;-78
2023/06/15 00:34:34;;;;;;;0.00;0.00;;;13.20;99.90;;;;;;5067144;28;20556;-78
2023/06/15 00:37:00;;;;;;;0.00;0.00;;;13.10;99.90;;;;;;5052934;28;20614;-78
2023/06/15 00:39:26;;;;;;;0.00;0.00;;;13.20;99.90;;;;;;5070598;28;20742;-77
2023/06/15 00:41:51;;;;;;;0.10;0.10;;;13.30;99.90;;;;;;5070185;28;20190;-78
2023/06/15 00:44:17;;;;;;;0.07;0.07;;;13.20;99.90;;;;;;5071056;28;20563;-78
2023/06/15 00:46:42;;;;;;;0.00;0.00;;;13.00;99.90;;;;;;5062880;28;20192;-78
2023/06/15 00:49:08;;;;;;;0.00;0.00;;;13.10;99.90;;;;;;5076167;28;20229;-78
2023/06/15 00:51:38;;;;;;;0.00;0.00;;;12.90;99.90;;;;;;5065274;28;20208;-78
2023/06/15 00:54:04;;;;;;;0.00;0.00;;;12.90;99.90;;;;;;5069421;28;20518;-77
2023/06/15 00:56:30;;;;;;;0.00;0.00;;;12.90;99.90;;;;;;5052966;28;20444;-78
2023/06/15 00:58:57;;;;;;;0.03;0.03;;;12.90;99.90;;;;;;5069712;28;21009;-78
2023/06/15 01:01:23;;;;;;;0.00;0.00;;;12.80;99.90;;;;;;5049888;28;20519;-78
2023/06/15 01:03:50;;;;;;;0.03;0.03;;;12.90;99.90;;;;;;5069267;28;20478;-78
2023/06/15 01:06:18;;;;;;;0.00;0.00;;;12.80;99.90;;;;;;5061116;28;20462;-78
2023/06/15 01:08:47;;;;;;;0.07;0.07;;;12.80;99.90;;;;;;5069840;28;20484;-78
2023/06/15 01:11:14;;;;;;;0.00;0.00;;;12.80;99.90;;;;;;5069064;28;21381;-77
2023/06/15 01:13:42;;;;;;;0.10;0.10;;;12.80;99.90;;;;;;5052246;28;20505;-78
2023/06/15 01:16:29;;;;;;;0.10;0.10;;;12.80;99.90;;;;;;5075325;28;20510;-78
2023/06/15 01:18:59;;;;;;;0.00;0.00;;;12.70;99.90;;;;;;5069933;28;20505;-78
2023/06/15 01:21:27;;;;;;;0.03;0.03;;;12.80;99.90;;;;;;5067165;28;20529;-78
2023/06/15 01:24:17;;;;;;;0.00;0.00;;;12.70;99.90;;;;;;5063660;28;20502;-78
2023/06/15 01:26:46;;;;;;;0.10;0.10;;;12.70;99.90;;;;;;5069155;28;20448;-78
2023/06/15 01:29:13;;;;;;;0.00;0.00;;;12.70;99.90;;;;;;5072066;28;20579;-78
2023/06/15 01:31:40;;;;;;;0.00;0.00;;;12.80;99.90;;;;;;5069880;28;20448;-78
2023/06/15 01:34:06;;;;;;;0.00;0.00;;;12.70;99.90;;;;;;5069424;28;20466;-78
2023/06/15 01:36:32;;;;;;;0.00;0.00;;;12.50;99.90;;;;;;5079900;28;20789;-78
2023/06/15 01:38:58;;;;;;;0.00;0.00;;;12.50;99.90;;;;;;5075554;28;20463;-78
2023/06/15 01:41:25;;;;;;;0.00;0.00;;;12.50;99.90;;;;;;5064437;28;20556;-78
2023/06/15 01:43:52;;;;;;;0.00;0.00;;;12.60;99.90;;;;;;5078020;28;20444;-78
2023/06/15 01:46:19;;;;;;;0.03;0.03;;;12.40;99.90;;;;;;5076151;28;20431;-78
2023/06/15 01:48:45;;;;;;;0.00;0.00;;;12.50;99.90;;;;;;5091340;28;20463;-78
2023/06/15 01:51:11;;;;;;;0.10;0.10;;;12.40;99.90;;;;;;5063762;28;20451;-79
2023/06/15 01:53:36;;;;;;;0.10;0.10;;;12.50;99.90;;;;;;5070346;28;20194;-79
2023/06/15 01:56:02;;;;;;;0.10;0.10;;;12.50;99.90;;;;;;5054611;28;20432;-79
2023/06/15 01:58:28;;;;;;;0.00;0.00;;;12.40;99.90;;;;;;5053052;28;20312;-79
2023/06/15 02:00:53;;;;;;;0.10;0.10;;;12.40;99.90;;;;;;5072877;28;20186;-78
2023/06/15 02:03:19;;;;;;;0.10;0.10;;;12.40;99.90;;;;;;5054674;28;20181;-78
2023/06/15 02:05:45;;;;;;;0.07;0.07;;;12.50;99.90;;;;;;5061016;28;20243;-78
2023/06/15 02:08:11;;;;;;;0.00;0.00;;;12.40;99.90;;;;;;5076711;28;20475;-78
2023/06/15 02:10:37;;;;;;;0.00;0.00;;;12.30;99.90;;;;;;5068407;28;20194;-79
2023/06/15 02:13:06;;;;;;;0.03;0.03;;;12.30;99.90;;;;;;5068274;28;20448;-79
2023/06/15 02:15:32;;;;;;;0.00;0.00;;;12.20;99.90;;;;;;5048075;28;20997;-78
2023/06/15 02:18:02;;;;;;;0.00;0.00;;;12.20;99.90;;;;;;5068075;28;20443;-78
2023/06/15 02:20:28;;;;;;;0.07;0.07;;;12.10;99.90;;;;;;5069486;28;20173;-78
2023/06/15 02:22:57;;;;;;;0.00;0.00;;;11.90;99.90;;;;;;5076687;28;21062;-79
2023/06/15 02:25:23;;;;;;;0.10;0.10;;;12.00;99.90;;;;;;5049685;28;20432;-78
2023/06/15 02:27:49;;;;;;;0.00;0.00;;;11.90;99.90;;;;;;5068091;28;20436;-79
2023/06/15 02:30:15;;;;;;;0.10;0.10;;;11.90;99.90;;;;;;5062779;28;21039;-78
2023/06/15 02:32:42;;;;;;;0.00;0.00;;;12.00;99.90;;;;;;5073476;28;20191;-78
2023/06/15 02:35:09;;;;;;;0.00;0.00;;;11.80;99.90;;;;;;5067226;28;20181;-78
2023/06/15 02:37:34;;;;;;;0.00;0.00;;;11.90;99.90;;;;;;5068160;28;20861;-78
2023/06/15 02:40:00;;;;;;;0.10;0.10;;;12.00;99.90;;;;;;5068258;28;20463;-79
2023/06/15 02:42:26;;;;;;;0.10;0.10;;;11.90;99.90;;;;;;5068257;28;20207;-78
2023/06/15 02:44:51;;;;;;;0.00;0.00;;;11.80;99.90;;;;;;5068155;28;20197;-78
2023/06/15 02:47:17;;;;;;;0.00;0.00;;;11.80;99.90;;;;;;5071930;28;20181;-76
2023/06/15 02:49:42;;;;;;;0.07;0.07;;;11.90;99.90;;;;;;5067910;28;20267;-78
2023/06/15 02:52:09;;;;;;;0.07;0.07;;;11.80;99.90;;;;;;5068041;28;20247;-78
2023/06/15 02:54:36;;;;;;;0.07;0.07;;;11.70;99.90;;;;;;5048670;28;20552;-79
2023/06/15 02:57:06;;;;;;;0.10;0.10;;;11.80;99.90;;;;;;5070845;28;20435;-78
2023/06/15 02:59:32;;;;;;;0.00;0.00;;;11.80;99.90;;;;;;5083623;28;20530;-79
2023/06/15 03:02:00;;;;;;;0.10;0.10;;;11.70;99.90;;;;;;5066057;28;20439;-78
2023/06/15 03:04:27;;;;;;;0.00;0.00;;;11.80;99.90;;;;;;5079756;28;20590;-78
2023/06/15 03:06:53;;;;;;;0.10;0.10;;;11.70;99.90;;;;;;5062942;28;21171;-79
2023/06/15 03:09:20;;;;;;;0.03;0.03;;;11.70;99.90;;;;;;5069607;28;20535;-79
2023/06/15 03:11:46;;;;;;;0.00;0.00;;;11.80;99.90;;;;;;5087665;28;20442;-79
2023/06/15 03:14:12;;;;;;;0.00;0.00;;;11.80;99.90;;;;;;5081721;28;20807;-76
2023/06/15 03:16:41;;;;;;;0.10;0.10;;;11.80;99.90;;;;;;5076792;28;20596;-79
2023/06/15 03:19:07;;;;;;;0.00;0.00;;;11.80;99.90;;;;;;5073888;28;20649;-78
2023/06/15 03:21:32;;;;;;;0.07;0.07;;;11.80;99.90;;;;;;5069356;28;20924;-78
2023/06/15 03:23:58;;;;;;;0.10;0.10;;;11.90;99.90;;;;;;5067981;28;20577;-79
2023/06/15 03:26:26;;;;;;;0.10;0.10;;;11.90;99.90;;;;;;5071289;28;20260;-79
2023/06/15 03:28:53;;;;;;;0.10;0.10;;;12.00;99.90;;;;;;5070076;28;20650;-79
2023/06/15 03:31:19;;;;;;;0.00;0.00;;;12.00;99.90;;;;;;5071909;28;20796;-76
2023/06/15 03:33:45;;;;;;;0.10;0.10;;;12.00;99.90;;;;;;5078469;28;20939;-78
2023/06/15 03:36:14;;;;;;;0.07;0.07;;;11.90;99.90;;;;;;5069303;28;20435;-79
2023/06/15 03:38:41;;;;;;;0.10;0.10;;;11.90;99.90;;;;;;5074387;28;20541;-79
2023/06/15 03:41:08;;;;;;;0.00;0.00;;;11.90;99.90;;;;;;5073266;28;20497;-78
2023/06/15 03:43:35;;;;;;;0.10;0.10;;;12.00;99.90;;;;;;5074105;28;20455;-79
2023/06/15 03:46:01;;;;;;;0.07;0.07;;;12.00;99.90;;;;;;5063147;28;20431;-79
2023/06/15 03:48:26;;;;;;;0.07;0.07;;;12.00;99.90;;;;;;5066300;28;20467;-78
2023/06/15 03:50:51;;;;;;;0.00;0.00;;;12.00;99.90;;;;;;5066434;28;20272;-79
2023/06/15 03:53:17;;;;;;;0.00;0.00;;;12.00;99.90;;;;;;5079920;28;20178;-79
2023/06/15 03:55:42;;;;;;;0.10;0.10;;;12.10;99.90;;;;;;5060490;28;20217;-79
2023/06/15 03:58:08;;;;;;;0.03;0.03;;;12.20;99.90;;;;;;5063592;28;20311;-78
2023/06/15 04:00:33;;;;;;;0.07;0.07;;;12.20;99.90;;;;;;5066240;28;20989;-78
2023/06/15 04:03:01;;;;;;;0.10;0.10;;;12.40;99.90;;;;;;5071895;28;20669;-79
2023/06/15 04:05:26;;;;;;;0.00;0.00;;;12.40;99.90;;;;;;5067238;28;20182;-79
2023/06/15 04:07:52;;;;;;;0.00;0.00;;;12.50;99.90;;;;;;5066731;28;20468;-78
2023/06/15 04:10:18;;;;;;;0.00;0.00;;;12.50;99.90;;;;;;5069390;28;20186;-77
2023/06/15 04:12:43;;;;;;;0.10;0.10;;;12.60;99.90;;;;;;5068931;28;20446;-79
2023/06/15 04:15:09;;;;;;;0.00;0.00;;;12.50;99.90;;;;;;5064002;28;20645;-79
2023/06/15 04:17:35;;;;;;;0.00;0.00;;;12.50;99.90;;;;;;5077214;28;20259;-79
2023/06/15 04:20:05;;;;;;;0.03;0.03;;;12.50;99.90;;;;;;5072651;28;20423;-79
2023/06/15 04:22:30;;;;;;;0.00;0.00;;;12.50;99.90;;;;;;5070140;28;20645;-80
2023/06/15 04:24:56;;;;;;;0.07;0.07;;;12.70;99.90;;;;;;5073718;28;20450;-79
2023/06/15 04:27:23;;;;;;;0.00;0.00;;;12.70;99.90;;;;;;5093370;28;20208;-79
2023/06/15 04:29:49;;;;;;;0.10;0.10;;;12.80;99.90;;;;;;5072034;28;20772;-79
2023/06/15 04:32:17;;;;;;;0.00;0.00;;;12.90;99.90;;;;;;5069861;28;20538;-79
2023/06/15 04:34:45;;;;;;;0.00;0.00;;;13.00;99.90;;;;;;5053233;28;20452;-79
2023/06/15 04:37:14;;;;;;;0.00;0.00;;;13.10;99.90;;;;;;5070876;28;20804;-79
2023/06/15 04:39:39;;;;;;;0.00;0.00;;;13.10;99.90;;;;;;5078571;28;20559;-79
2023/06/15 04:42:08;;;;;;;0.00;0.00;;;13.10;99.90;;;;;;5081095;28;20530;-79
2023/06/15 04:44:34;;;;;;;0.00;0.00;;;13.20;99.90;;;;;;5083677;28;20301;-80
2023/06/15 04:47:00;;;;;;;0.07;0.07;;;13.40;99.90;;;;;;5071235;28;20544;-80
2023/06/15 04:49:25;;;;;;;0.00;0.00;;;13.40;99.90;;;;;;5086576;28;20641;-79
2023/06/15 04:51:51;;;;;;;0.00;0.00;;;13.40;99.90;;;;;;5074479;28;20591;-79
2023/06/15 04:54:17;;;;;;;0.00;0.00;;;13.40;99.90;;;;;;5047812;28;20603;-79
2023/06/15 04:56:43;;;;;;;0.00;0.00;;;13.40;99.90;;;;;;5083004;28;20242;-79
2023/06/15 04:59:08;;;;;;;0.00;0.00;;;13.50;99.90;;;;;;5070375;28;20576;-79
2023/06/15 05:01:33;;;;;;;0.00;0.00;;;13.60;99.90;;;;;;5063321;28;20451;-79
2023/06/15 05:03:59;;;;;;;0.00;0.00;;;13.70;99.90;;;;;;5068375;28;20186;-79
2023/06/15 05:06:26;;;;;;;0.00;0.00;;;13.90;99.90;;;;;;5069907;28;20287;-79
2023/06/15 05:08:51;;;;;;;0.00;0.00;;;13.90;99.90;;;;;;5069413;28;20295;-79
2023/06/15 05:11:17;;;;;;;0.00;0.00;;;13.90;99.90;;;;;;5069661;28;20924;-79
2023/06/15 05:13:43;;;;;;;0.00;0.00;;;14.10;99.90;;;;;;5071221;28;20207;-79
2023/06/15 05:16:09;;;;;;;0.00;0.00;;;14.20;99.90;;;;;;5069553;28;20205;-79
2023/06/15 05:18:34;;;;;;;0.00;0.00;;;14.10;99.90;;;;;;5070864;28;20475;-79
2023/06/15 05:21:00;;;;;;;0.00;0.00;;;14.40;99.90;;;;;;5071125;28;20186;-79
2023/06/15 05:23:26;;;;;;;0.00;0.00;;;14.40;99.90;;;;;;5065180;28;20190;-79
2023/06/15 05:25:52;;;;;;;0.00;0.00;;;14.40;99.90;;;;;;5076160;28;20262;-78
2023/06/15 05:28:18;;;;;;;0.00;0.00;;;14.50;99.90;;;;;;5075325;28;20495;-79
2023/06/15 05:30:44;;;;;;;0.00;0.00;;;14.50;99.90;;;;;;5068460;28;20193;-78
2023/06/15 05:33:11;;;;;;;0.00;0.00;;;14.60;99.90;;;;;;5069857;28;20482;-79
2023/06/15 05:35:36;;;;;;;0.00;0.00;;;14.70;99.90;;;;;;5067360;28;20269;-79
2023/06/15 05:38:02;;;;;;;0.00;0.00;;;14.70;99.90;;;;;;5071215;28;20525;-79
2023/06/15 05:40:27;;;;;;;0.00;0.00;;;14.90;99.90;;;;;;5071796;28;20197;-80
2023/06/15 05:42:54;;;;;;;0.00;0.00;;;14.90;99.90;;;;;;5079128;28;20192;-79
2023/06/15 05:45:20;;;;;;;0.00;0.00;;;14.90;99.90;;;;;;5073871;28;20181;-80
2023/06/15 05:47:45;;;;;;;0.00;0.00;;;15.00;99.90;;;;;;5067890;28;20534;-80
2023/06/15 05:50:11;;;;;;;0.00;0.00;;;15.10;99.90;;;;;;5068490;28;20661;-80
2023/06/15 05:52:36;;;;;;;0.00;0.00;;;15.20;99.90;;;;;;5071260;28;20186;-80
2023/06/15 05:55:02;;;;;;;0.00;0.00;;;15.30;99.90;;;;;;5067585;28;20178;-80
2023/06/15 05:57:28;;;;;;;0.00;0.00;;;15.10;99.90;;;;;;5072948;28;20213;-80
2023/06/15 05:59:53;;;;;;;0.00;0.00;;;15.10;99.90;;;;;;5068470;28;20550;-80
2023/06/15 06:02:19;;;;;;;0.00;0.00;;;15.20;99.90;;;;;;5071062;28;20699;-80
2023/06/15 06:04:44;;;;;;;0.00;0.00;;;15.00;99.90;;;;;;5070026;28;20190;-80
2023/06/15 06:07:10;;;;;;;0.00;0.00;;;15.00;99.90;;;;;;5069403;28;20190;-80
2023/06/15 06:09:37;;;;;;;0.00;0.00;;;14.90;99.90;;;;;;5069248;28;20218;-80
2023/06/15 06:12:03;;;;;;;0.00;0.00;;;14.90;99.90;;;;;;5078344;28;21187;-80
2023/06/15 06:14:28;;;;;;;0.00;0.00;;;14.80;99.90;;;;;;5067989;28;20443;-80
2023/06/15 06:16:55;;;;;;;0.00;0.00;;;14.80;99.90;;;;;;5070727;28;20267;-79
2023/06/15 06:19:24;;;;;;;0.00;0.00;;;14.90;99.90;;;;;;5083742;28;20669;-79
2023/06/15 06:21:49;;;;;;;0.00;0.00;;;15.10;99.90;;;;;;5076649;28;20438;-80
2023/06/15 06:24:15;;;;;;;0.00;0.00;;;15.20;99.90;;;;;;5067857;28;20558;-80
2023/06/15 06:26:41;;;;;;;0.00;0.00;;;15.20;99.90;;;;;;5066114;28;20177;-79
2023/06/15 06:29:07;;;;;;;0.00;0.00;;;15.20;99.90;;;;;;5069518;28;21012;-79
2023/06/15 06:31:32;;;;;;;0.00;0.00;;;15.30;99.90;;;;;;5064060;28;20607;-80
2023/06/15 06:33:58;;;;;;;0.00;0.00;;;15.40;99.90;;;;;;5067123;28;20225;-80
2023/06/15 06:36:25;;;;;;;0.00;0.00;;;15.30;99.90;;;;;;5061935;28;20190;-78
2023/06/15 06:38:50;;;;;;;0.00;0.00;;;15.30;99.90;;;;;;5074777;28;20267;-79
2023/06/15 06:41:16;;;;;;;0.00;0.00;;;15.60;99.90;;;;;;5068076;28;20448;-79
2023/06/15 06:43:41;;;;;;;0.00;0.00;;;15.60;99.90;;;;;;5073885;28;20189;-80
2023/06/15 06:46:07;;;;;;;0.00;0.00;;;15.60;99.90;;;;;;5049309;28;20205;-80
2023/06/15 06:48:32;;;;;;;0.00;0.00;;;15.50;99.90;;;;;;5087021;28;20273;-80
2023/06/15 06:50:58;;;;;;;0.00;0.00;;;15.50;99.90;;;;;;5072749;28;20649;-80
2023/06/15 06:53:25;;;;;;;0.00;0.00;;;15.60;99.90;;;;;;5064291;28;20281;-79
2023/06/15 06:55:50;;;;;;;0.00;0.00;;;15.70;99.90;;;;;;5070045;28;21828;-80
2023/06/15 06:58:15;;;;;;;0.00;0.00;;;15.60;99.90;;;;;;5061746;28;20503;-80
2023/06/15 07:00:41;;;;;;;0.00;0.00;;;15.80;99.90;;;;;;5068242;28;20197;-80
2023/06/15 07:03:07;;;;;;;0.00;0.00;;;15.80;99.90;;;;;;5069089;28;20242;-79
2023/06/15 07:05:33;;;;;;;0.00;0.00;;;15.70;99.90;;;;;;5066729;28;20690;-79
2023/06/15 07:07:58;;;;;;;0.00;0.00;;;15.60;99.90;;;;;;5070120;28;20214;-79
2023/06/15 07:10:24;;;;;;;0.00;0.00;;;15.50;99.90;;;;;;5071801;28;20198;-79
2023/06/15 07:12:53;;;;;;;0.00;0.00;;;15.60;99.90;;;;;;5073347;28;20181;-79
2023/06/15 07:15:18;;;;;;;0.00;0.00;;;15.70;99.90;;;;;;5064624;28;20535;-80
2023/06/15 07:17:44;;;;;;;0.00;0.00;;;15.70;99.90;;;;;;5052067;28;21195;-81
2023/06/15 07:20:09;;;;;;;0.00;0.00;;;15.90;99.90;;;;;;5051850;28;20181;-80
2023/06/15 07:22:35;;;;;;;0.00;0.00;;;16.00;99.90;;;;;;5067647;28;20551;-80
2023/06/15 07:25:00;;;;;;;0.00;0.00;;;16.30;99.90;;;;;;5064136;28;20547;-81
2023/06/15 07:27:26;;;;;;;0.00;0.00;;;16.30;99.90;;;;;;5066920;28;20185;-80
2023/06/15 07:29:51;;;;;;;0.00;0.00;;;16.30;99.90;;;;;;5062209;28;20589;-80
2023/06/15 07:32:17;;;;;;;0.00;0.00;;;16.40;99.90;;;;;;5066530;28;21163;-80
2023/06/15 07:34:42;;;;;;;0.00;0.00;;;16.60;99.90;;;;;;5082805;28;20656;-79
2023/06/15 07:37:08;;;;;;;0.00;0.00;;;16.50;99.90;;;;;;5062177;28;20275;-78
2023/06/15 07:39:34;;;;;;;0.00;0.00;;;16.90;99.90;;;;;;5047053;28;20193;-79
2023/06/15 07:42:00;;;;;;;0.00;0.00;;;17.00;99.90;;;;;;5076483;28;20192;-78
2023/06/15 07:44:26;;;;;;;0.00;0.00;;;17.30;99.90;;;;;;5073643;28;20454;-78
2023/06/15 08:06:32;;;;;;;0.00;0.00;;;19.60;99.90;;;;;;5111593;27;20592;-78
2023/06/15 08:08:58;;;;;;;0.00;0.00;;;19.90;99.90;;;;;;5116764;28;20494;-78
2023/06/15 08:11:23;;;;;;;0.00;0.00;;;20.10;99.90;;;;;;5111117;28;20192;-78
2023/06/15 08:13:49;;;;;;;0.00;0.00;;;20.20;99.90;;;;;;5087354;28;20604;-79
2023/06/15 08:16:14;;;;;;;0.00;0.00;;;20.10;99.90;;;;;;5115529;28;20275;-77
2023/06/15 08:18:41;;;;;;;0.00;0.00;;;20.10;99.90;;;;;;5105736;28;20705;-78
2023/06/15 08:21:06;;;;;;;0.00;0.00;;;20.10;99.90;;;;;;5107120;28;20205;-79
2023/06/15 08:23:32;;;;;;;0.00;0.00;;;20.10;99.90;;;;;;5103224;28;20541;-78
2023/06/15 08:25:57;;;;;;;0.00;0.00;;;20.00;99.90;;;;;;5103821;28;20213;-78
2023/06/15 08:28:23;;;;;;;0.00;0.00;;;20.00;99.90;;;;;;5106769;28;20229;-78
2023/06/15 08:30:48;;;;;;;0.00;0.00;;;19.80;99.90;;;;;;5106716;28;20216;-78
2023/06/15 08:33:14;;;;;;;0.00;0.00;;;19.70;99.90;;;;;;5105330;28;20184;-78
2023/06/15 08:35:39;;;;;;;0.00;0.00;;;19.60;99.90;;;;;;5114258;28;20195;-79
2023/06/15 08:38:05;;;;;;;0.00;0.00;;;19.60;99.90;;;;;;5105670;28;20270;-78
2023/06/15 08:40:30;;;;;;;0.00;0.00;;;19.50;99.90;;;;;;5103734;28;20244;-79
2023/06/15 08:42:58;;;;;;;0.00;0.00;;;19.60;99.90;;;;;;5113805;28;20185;-78
2023/06/15 08:45:26;;;;;;;0.00;0.00;;;19.60;99.90;;;;;;5104629;28;20221;-79
2023/06/15 08:47:54;;;;;;;0.00;0.00;;;19.70;99.90;;;;;;5105398;28;20438;-78
2023/06/15 08:50:20;;;;;;;0.00;0.00;;;19.70;99.90;;;;;;5104973;28;20446;-78
2023/06/15 08:52:47;;;;;;;0.00;0.00;;;19.80;99.90;;;;;;5121430;28;20456;-78
2023/06/15 08:55:15;;;;;;;0.00;0.00;;;19.90;99.90;;;;;;5121469;28;20191;-79
2023/06/15 08:57:41;;;;;;;0.00;0.00;;;20.10;99.90;;;;;;5105349;28;20496;-79
2023/06/15 09:00:10;;;;;;;0.00;0.00;;;20.30;99.90;;;;;;5085921;28;21109;-79
2023/06/15 09:02:42;;;;;;;0.00;0.00;;;20.60;99.90;;;;;;5100844;28;20185;-79
2023/06/15 09:05:08;;;;;;;0.00;0.00;;;21.00;99.90;;;;;;5104403;28;21016;-79
2023/06/15 09:07:34;;;;;;;0.00;0.00;;;21.40;99.90;;;;;;5086173;28;20529;-75
2023/06/15 09:10:10;;;;;;;0.00;0.00;;;21.60;99.90;;;;;;5104842;28;20550;-78
2023/06/15 09:12:44;;;;;;;0.00;0.00;;;21.80;99.90;;;;;;5111212;28;20933;-79
2023/06/15 09:15:12;;;;;;;0.00;0.00;;;21.90;99.90;;;;;;5105931;28;20815;-76
2023/06/15 09:17:39;;;;;;;0.00;0.00;;;21.70;99.90;;;;;;5088017;28;20471;-76
2023/06/15 09:20:06;;;;;;;0.00;0.00;;;21.60;99.90;;;;;;5089427;28;20456;-76
2023/06/15 09:22:38;;;;;;;0.00;0.00;;;21.40;99.90;;;;;;5088875;28;20427;-76
2023/06/15 09:25:16;;;;;;;0.00;0.00;;;21.30;99.90;;;;;;5072503;28;21005;-76
2023/06/15 09:28:04;;;;;;;0.00;0.00;;;21.10;99.90;;;;;;5090255;28;20439;-76
2023/06/15 09:30:31;;;;;;;0.00;0.00;;;21.10;99.90;;;;;;5075335;28;20468;-76
2023/06/15 09:32:58;;;;;;;0.00;0.00;;;21.00;99.90;;;;;;5090289;28;20439;-75
2023/06/15 09:35:24;;;;;;;0.00;0.00;;;21.00;99.90;;;;;;5088249;28;20450;-75
2023/06/15 09:37:55;;;;;;;0.00;0.00;;;20.80;99.90;;;;;;5087773;28;20999;-78
2023/06/15 09:40:23;;;;;;;0.00;0.00;;;20.60;99.90;;;;;;5090658;28;20186;-78
2023/06/15 09:42:50;;;;;;;0.00;0.00;;;20.40;99.90;;;;;;5071851;28;20463;-78
2023/06/15 09:45:16;;;;;;;0.00;0.00;;;20.20;99.90;;;;;;5092119;28;20477;-77
2023/06/15 09:47:42;;;;;;;0.00;0.00;;;20.10;99.90;;;;;;5072088;28;20451;-78
2023/06/15 09:50:10;;;;;;;0.00;0.00;;;19.90;99.90;;;;;;5092152;28;20184;-78
2023/06/15 09:52:49;;;;;;;0.00;0.00;;;19.70;99.90;;;;;;5094493;28;20699;-79
2023/06/15 09:55:16;;;;;;;0.00;0.00;;;19.40;99.90;;;;;;5092872;28;20407;-79
2023/06/15 09:57:41;;;;;;;0.00;0.00;;;19.20;99.90;;;;;;5091150;28;20542;-79
2023/06/15 10:00:08;;;;;;;0.00;0.00;;;19.00;99.90;;;;;;5091042;28;21014;-79
2023/06/15 10:02:36;;;;;;;0.00;0.00;;;18.80;99.90;;;;;;5072259;28;20223;-79
2023/06/15 10:05:05;;;;;;;0.00;0.00;;;18.80;99.90;;;;;;5089063;28;20499;-78
2023/06/15 10:07:32;;;;;;;0.00;0.00;;;18.70;99.90;;;;;;5090287;28;20438;-79
2023/06/15 10:09:59;;;;;;;0.00;0.00;;;18.80;99.90;;;;;;5090317;28;21193;-79
2023/06/15 10:12:28;;;;;;;0.00;0.00;;;18.80;99.90;;;;;;5087526;28;20806;-79
2023/06/15 10:15:09;;;;;;;0.00;0.00;;;19.00;99.90;;;;;;5089573;28;20452;-78
2023/06/15 10:17:35;;;;;;;0.00;0.00;;;19.20;99.90;;;;;;5069826;28;21041;-77
2023/06/15 10:20:16;;;;;;;0.00;0.00;;;19.50;99.90;;;;;;5086312;28;20841;-76
2023/06/15 10:22:56;;;;;;;0.00;0.00;;;19.70;99.90;;;;;;5085395;28;20985;-76
2023/06/15 10:25:23;;;;;;;0.00;0.00;;;20.10;99.90;;;;;;5072540;28;20483;-76
2023/06/15 10:27:49;;;;;;;0.00;0.00;;;20.20;99.90;;;;;;5071680;28;20522;-77
2023/06/15 10:30:29;;;;;;;0.00;0.00;;;20.20;99.90;;;;;;5072230;28;20554;-77
2023/06/15 10:33:06;;;;;;;0.00;0.00;;;20.30;99.90;;;;;;5071307;28;20442;-77
2023/06/15 10:35:48;;;;;;;0.00;0.00;;;21.10;99.90;;;;;;5088666;28;20902;-74
2023/06/15 10:38:29;;;;;;;0.00;0.00;;;21.90;99.90;;;;;;5087146;28;20468;-75
2023/06/15 10:40:55;;;;;;;0.00;0.00;;;22.60;99.90;;;;;;5067582;28;21244;-74
2023/06/15 10:43:21;;;;;;;0.00;0.00;;;23.00;99.90;;;;;;5066557;28;20451;-75
2023/06/15 10:45:48;;;;;;;0.00;0.00;;;23.10;99.90;;;;;;5082531;28;20508;-74
2023/06/15 10:48:23;;;;;;;0.00;0.00;;;23.90;99.90;;;;;;5084511;28;20438;-75
2023/06/15 10:50:51;;;;;;;0.00;0.00;;;24.60;99.90;;;;;;5089274;28;20438;-75
2023/06/15 10:53:22;;;;;;;0.00;0.00;;;25.30;99.90;;;;;;5084430;28;20447;-75
2023/06/15 10:55:51;;;;;;;0.00;0.00;;;25.70;99.90;;;;;;5085573;28;20470;-74
2023/06/15 10:58:18;;;;;;;0.00;0.00;;;26.30;98.00;;;;;;5084973;28;20662;-75
2023/06/15 11:00:45;;;;;;;0.00;0.00;;;26.40;98.20;;;;;;5086525;28;20501;-74
2023/06/15 11:03:24;;;;;;;0.00;0.00;;;26.80;97.80;;;;;;5084616;28;20911;-75
2023/06/15 11:06:05;;;;;;;0.00;0.00;;;26.90;95.50;;;;;;5083667;28;20516;-74
2023/06/15 11:08:40;;;;;;;0.00;0.00;;;26.90;96.30;;;;;;5105445;28;20442;-75
2023/06/15 11:11:09;;;;;;;0.00;0.00;;;27.50;96.70;;;;;;5093739;28;20499;-74
2023/06/15 11:13:36;;;;;;;0.00;0.00;;;27.50;94.60;;;;;;5086701;28;20446;-75
2023/06/15 11:16:07;;;;;;;0.00;0.00;;;27.70;95.30;;;;;;5083716;28;20930;-75
2023/06/15 11:18:34;;;;;;;0.00;0.00;;;28.00;94.30;;;;;;5088292;28;20434;-75
2023/06/15 11:21:00;;;;;;;0.00;0.00;;;27.90;93.10;;;;;;5089480;28;20439;-75
2023/06/15 11:23:33;;;;;;;0.00;0.00;;;27.70;92.20;;;;;;5069310;28;20483;-75
2023/06/15 11:26:01;;;;;;;0.00;0.00;;;27.70;93.70;;;;;;5091399;28;20241;-74
2023/06/15 11:28:30;;;;;;;0.00;0.00;;;27.70;94.00;;;;;;5101823;28;20435;-75
2023/06/15 11:30:59;;;;;;;0.00;0.00;;;28.30;92.60;;;;;;5087145;28;20520;-75
2023/06/15 11:33:29;;;;;;;0.00;0.00;;;28.40;92.00;;;;;;5085727;28;20446;-75
2023/06/15 11:35:56;;;;;;;0.00;0.00;;;28.50;91.30;;;;;;5086809;28;20821;-75
2023/06/15 11:38:25;;;;;;;0.00;0.00;;;28.50;93.60;;;;;;5082121;28;20444;-73
2023/06/15 11:40:58;;;;;;;0.00;0.00;;;28.90;92.00;;;;;;5078844;28;20443;-74
2023/06/15 11:43:23;;;;;;;0.00;0.00;;;29.50;91.10;;;;;;5089893;28;20472;-73
2023/06/15 11:45:50;;;;;;;0.00;0.00;;;29.30;91.50;;;;;;5071180;28;20543;-73
2023/06/15 11:48:15;;;;;;;0.00;0.00;;;29.20;90.90;;;;;;5089760;28;20666;-73
2023/06/15 11:50:42;;;;;;;0.00;0.00;;;29.10;90.90;;;;;;5089084;28;20443;-73
2023/06/15 11:53:13;;;;;;;0.00;0.00;;;29.40;90.20;;;;;;5089419;28;20260;-73
2023/06/15 11:55:45;;;;;;;0.00;0.00;;;29.00;89.80;;;;;;5079123;28;20447;-73
2023/06/15 11:58:11;;;;;;;0.00;0.00;;;28.30;91.00;;;;;;5079272;28;20526;-73
2023/06/15 12:00:36;;;;;;;0.00;0.00;;;27.80;90.30;;;;;;5087496;28;20557;-74
2023/06/15 12:03:12;;;;;;;0.00;0.00;;;26.80;92.00;;;;;;5088699;28;20223;-75
2023/06/15 12:05:38;;;;;;;0.00;0.00;;;26.10;92.60;;;;;;5089158;28;20254;-75
2023/06/15 12:08:05;;;;;;;0.00;0.00;;;26.60;93.20;;;;;;5095464;28;20431;-75
2023/06/15 12:10:35;;;;;;;0.00;0.00;;;27.10;92.00;;;;;;5089166;28;20451;-75
2023/06/15 12:13:01;;;;;;;0.00;0.00;;;27.50;91.20;;;;;;5086632;28;20961;-75
2023/06/15 12:15:28;;;;;;;0.00;0.00;;;27.90;91.00;;;;;;5086194;28;20443;-73
2023/06/15 12:17:55;;;;;;;0.00;0.00;;;28.70;90.80;;;;;;5086689;28;20184;-73
2023/06/15 12:20:28;;;;;;;0.00;0.00;;;29.50;90.80;;;;;;5088023;28;20496;-73
2023/06/15 12:22:53;;;;;;;0.00;0.00;;;29.10;90.40;;;;;;5088466;28;20780;-72
2023/06/15 12:25:42;;;;;;;0.00;0.00;;;29.00;90.00;;;;;;5089717;28;20477;-72
2023/06/15 12:28:15;;;;;;;0.00;0.00;;;28.70;91.40;;;;;;5087861;28;20272;-72
2023/06/15 12:30:42;;;;;;;0.00;0.00;;;28.70;90.90;;;;;;5087312;28;20462;-75
2023/06/15 12:33:24;;;;;;;0.00;0.00;;;28.50;90.90;;;;;;5088087;28;20439;-74
2023/06/15 12:35:51;;;;;;;0.00;0.00;;;27.80;90.80;;;;;;5079497;28;20966;-74
2023/06/15 12:38:17;;;;;;;0.00;0.00;;;27.10;92.10;;;;;;5085756;28;20435;-75
2023/06/15 12:40:43;;;;;;;0.00;0.00;;;26.80;93.70;;;;;;5067965;28;20446;-74
2023/06/15 12:43:09;;;;;;;0.00;0.00;;;26.90;93.60;;;;;;5069987;28;20181;-74
2023/06/15 12:45:35;;;;;;;0.00;0.00;;;26.80;93.50;;;;;;5088396;28;20220;-74
2023/06/15 12:48:01;;;;;;;0.00;0.00;;;26.60;94.30;;;;;;5089685;28;20442;-74
2023/06/15 12:50:30;;;;;;;0.00;0.00;;;26.70;94.20;;;;;;5086616;28;20564;-74
2023/06/15 12:52:57;;;;;;;0.00;0.00;;;26.70;93.60;;;;;;5091521;28;20435;-74
2023/06/15 12:55:25;;;;;;;0.00;0.00;;;26.30;94.40;;;;;;5092026;28;20532;-74
2023/06/15 12:57:51;;;;;;;0.00;0.00;;;25.90;95.20;;;;;;5079347;28;20471;-74
2023/06/15 13:00:19;;;;;;;0.00;0.00;;;25.60;95.30;;;;;;5071732;28;20443;-76
2023/06/15 13:02:45;;;;;;;0.00;0.00;;;25.20;94.90;;;;;;5095801;28;20426;-76
2023/06/15 13:05:11;;;;;;;0.00;0.00;;;25.00;96.30;;;;;;5088760;28;20516;-74
2023/06/15 13:07:37;;;;;;;0.00;0.00;;;24.90;96.60;;;;;;5078393;28;20442;-74